You are listening to:
SBPA Gnd/Twr/App/Center - Porto Alegre, Brazil

SBPA 011300Z 09007KT 9999 SCT030 BKN090 26/20 Q1014

If stream doesn't start automatically press the play button
If stream stops then reload player then press play